Portada
METAR-TAF:

METAR-TAF

Aeroports :

Surat Thani, Tailàndia

latitud: 09-07N, longitud: 099-21E, altitud: 10 m

Observació

L'informe es va fer fa 6 hores i 35 minuts, a les 15:00 UTC
Vent 4 kt del Nord/Nord-Oest
Temperatura 24°C
Humitat 89%
Pressió 1013 hPa
Visibilitat: 9000 m
Escasses núvols a una alçada de 2000 ft

METAR: VTSB 111500Z 34004KT 9000 FEW020 24/22 Q1013

Hora: 04:35 (21:35 UTC)

Pronòstic

L'informe es va fer fa 4 hores i 35 minuts, a les 17:00 UTC
Pronòstic vàlid del 11 a les 18 UTC al 12 a les 18 UTC
Vent 5 kt del Nord/Nord-Oest
Visibilitat: 9000 m
Escasses núvols a una alçada de 2000 ft
Evolucionant progressivament
l' 12 a les 03 UTC al 12 a les 05 UTC
Vent 13 kt del Nord-Est
Evolucionant progressivament
l' 12 a les 14 UTC al 12 a les 16 UTC
Vent 5 kt del Nord/Nord-Oest

TAF: VTSB 111700Z 1118/1218 34005KT 9000 FEW020 BECMG 1203/1205 05013KT BECMG 1214/1216 34005KT

Observacions i pronòstics meteorològics de més de 4000 aeroports (METAR i TAF).

Les estacions disponibles són els punts grocs i vermells al mapa.

Posi el ratolí al punt desitjat per veure el nom de l'estació.

Feu clic per veure les observacions i els pronòstics meteorològics.

Per canviar el mapa: feu clic els botons verds amb una creu de color negre per apropar; al botó verd amb un guió per allunyar la imatge; o en les fletxes verdes per a mapes adjacents.


METAR-TAF: